DAL2855 KSLC-KCLE
Flight info
| Callsign | DAL2855 |
|---|---|
| Flight time | 2h 51m |
| Altitude | 37000 |
| Route | RUGGD3 PERTY CHE GLL MCK LMN GIJ BENJO BRWNZ4 |
| Aircraft | A319/M-SDE3FGHIRWY/LB1 |
Departure
| Time | 2026-05-05 23:52 |
|---|---|
| Airport | Salt Lake City International Airport (KSLC) |
Arrival
| Time | 2026-05-06 02:43 |
|---|---|
| Airport | Cleveland Hopkins International Airport (KCLE) |
| Time | Latitude | Longitude | Altitude | Speed | Heading |
|---|---|---|---|---|---|
| 2026-05-05 22:29 | 40.78495 | -111.98764 | 4129 ft | 0 kts | 355° |
| 2026-05-05 23:43 | 40.78488 | -111.98763 | 4231 ft | 4 kts | 355° |
| 2026-05-05 23:43 | 40.78465 | -111.98760 | 4231 ft | 2 kts | 355° |
| 2026-05-05 23:43 | 40.78443 | -111.98751 | 4231 ft | 4 kts | 320° |
| 2026-05-05 23:44 | 40.78433 | -111.98740 | 4231 ft | 4 kts | 316° |
| 2026-05-05 23:44 | 40.78440 | -111.98770 | 4231 ft | 4 kts | 273° |
| 2026-05-05 23:44 | 40.78439 | -111.98797 | 4231 ft | 0 kts | 265° |
| 2026-05-05 23:46 | 40.78438 | -111.98810 | 4231 ft | 3 kts | 265° |
| 2026-05-05 23:47 | 40.78436 | -111.98830 | 4231 ft | 2 kts | 265° |
| 2026-05-05 23:47 | 40.78434 | -111.98867 | 4231 ft | 6 kts | 265° |
| 2026-05-05 23:47 | 40.78428 | -111.98950 | 4231 ft | 14 kts | 265° |
| 2026-05-05 23:47 | 40.78418 | -111.99112 | 4231 ft | 19 kts | 265° |
| 2026-05-05 23:48 | 40.78409 | -111.99282 | 4231 ft | 18 kts | 269° |
| 2026-05-05 23:48 | 40.78373 | -111.99418 | 4231 ft | 16 kts | 199° |
| 2026-05-05 23:48 | 40.78261 | -111.99421 | 4230 ft | 16 kts | 176° |
| 2026-05-05 23:48 | 40.78149 | -111.99411 | 4231 ft | 16 kts | 179° |
| 2026-05-05 23:49 | 40.78024 | -111.99425 | 4270 ft | 18 kts | 188° |
| 2026-05-05 23:49 | 40.77900 | -111.99431 | 4270 ft | 18 kts | 178° |
| 2026-05-05 23:49 | 40.77782 | -111.99418 | 4270 ft | 16 kts | 174° |
| 2026-05-05 23:49 | 40.77672 | -111.99404 | 4271 ft | 15 kts | 175° |
| 2026-05-05 23:50 | 40.77581 | -111.99394 | 4272 ft | 11 kts | 175° |
| 2026-05-05 23:50 | 40.77539 | -111.99400 | 4272 ft | 3 kts | 209° |
| 2026-05-05 23:50 | 40.77531 | -111.99412 | 4272 ft | 1 kts | 231° |
| 2026-05-05 23:50 | 40.77525 | -111.99430 | 4272 ft | 4 kts | 251° |
| 2026-05-05 23:51 | 40.77519 | -111.99482 | 4272 ft | 7 kts | 262° |
| 2026-05-05 23:51 | 40.77533 | -111.99549 | 4273 ft | 9 kts | 333° |
| 2026-05-05 23:51 | 40.77670 | -111.99566 | 4273 ft | 47 kts | 354° |
| 2026-05-05 23:51 | 40.78245 | -111.99635 | 4230 ft | 114 kts | 355° |
| 2026-05-05 23:52 | 40.79224 | -111.99751 | 4231 ft | 167 kts | 355° |
| 2026-05-05 23:52 | 40.80469 | -111.99892 | 4551 ft | 183 kts | 355° |
| 2026-05-05 23:52 | 40.81706 | -112.00042 | 5335 ft | 176 kts | 353° |
| 2026-05-05 23:52 | 40.82930 | -112.00260 | 5930 ft | 180 kts | 351° |
| 2026-05-05 23:53 | 40.84241 | -112.00520 | 6223 ft | 200 kts | 351° |
| 2026-05-05 23:53 | 40.85679 | -112.00833 | 6497 ft | 220 kts | 351° |
| 2026-05-05 23:53 | 40.87253 | -112.01175 | 6784 ft | 239 kts | 349° |
| 2026-05-05 23:53 | 40.88981 | -112.01504 | 7136 ft | 260 kts | 351° |
| 2026-05-05 23:54 | 40.90799 | -112.01823 | 7879 ft | 266 kts | 350° |
| 2026-05-05 23:54 | 40.92624 | -112.02138 | 8837 ft | 265 kts | 351° |
| 2026-05-05 23:54 | 40.94460 | -112.02463 | 9752 ft | 266 kts | 351° |
| 2026-05-05 23:54 | 40.96297 | -112.02788 | 10577 ft | 268 kts | 351° |
| 2026-05-05 23:55 | 40.98156 | -112.03137 | 11391 ft | 270 kts | 351° |
| 2026-05-05 23:55 | 41.00016 | -112.03497 | 12214 ft | 272 kts | 351° |
| 2026-05-05 23:55 | 41.01899 | -112.03874 | 13015 ft | 275 kts | 351° |
| 2026-05-05 23:55 | 41.03878 | -112.03848 | 13270 ft | 300 kts | 12° |
| 2026-05-05 23:56 | 41.05808 | -112.02545 | 13440 ft | 329 kts | 39° |
| 2026-05-05 23:56 | 41.07160 | -111.99973 | 13605 ft | 358 kts | 67° |
| 2026-05-05 23:56 | 41.07491 | -111.96633 | 14043 ft | 376 kts | 92° |
| 2026-05-05 23:56 | 41.06965 | -111.93193 | 14627 ft | 386 kts | 104° |
| 2026-05-05 23:57 | 41.06001 | -111.89852 | 15243 ft | 392 kts | 111° |
| 2026-05-05 23:57 | 41.04835 | -111.86557 | 15863 ft | 397 kts | 113° |
| 2026-05-05 23:57 | 41.03635 | -111.83260 | 16473 ft | 401 kts | 112° |
| 2026-05-05 23:57 | 41.02474 | -111.79887 | 17063 ft | 404 kts | 110° |
| 2026-05-05 23:58 | 41.01377 | -111.76429 | 17661 ft | 408 kts | 109° |
| 2026-05-05 23:58 | 41.00339 | -111.72914 | 18246 ft | 412 kts | 108° |
| 2026-05-05 23:58 | 40.99320 | -111.69295 | 18786 ft | 416 kts | 107° |
| 2026-05-05 23:58 | 40.98325 | -111.65694 | 19333 ft | 419 kts | 107° |
| 2026-05-05 23:59 | 40.97315 | -111.62059 | 19872 ft | 422 kts | 108° |
| 2026-05-05 23:59 | 40.96298 | -111.58449 | 20388 ft | 425 kts | 108° |
| 2026-05-05 23:59 | 40.95236 | -111.54735 | 20910 ft | 428 kts | 108° |
| 2026-05-05 23:59 | 40.94168 | -111.51047 | 21475 ft | 430 kts | 109° |
| 2026-05-06 00:00 | 40.93090 | -111.47347 | 21988 ft | 432 kts | 109° |
| 2026-05-06 00:00 | 40.92003 | -111.43629 | 22469 ft | 435 kts | 109° |
| 2026-05-06 00:00 | 40.91016 | -111.39847 | 22806 ft | 436 kts | 102° |
| 2026-05-06 00:00 | 40.90442 | -111.35929 | 22871 ft | 434 kts | 96° |
| 2026-05-06 00:01 | 40.89988 | -111.31986 | 22867 ft | 433 kts | 96° |
| 2026-05-06 00:01 | 40.89537 | -111.28057 | 22866 ft | 433 kts | 96° |
| 2026-05-06 00:01 | 40.89083 | -111.24127 | 22874 ft | 433 kts | 96° |
| 2026-05-06 00:01 | 40.88621 | -111.20195 | 22873 ft | 433 kts | 96° |
| 2026-05-06 00:02 | 40.88152 | -111.16243 | 23175 ft | 436 kts | 96° |
| 2026-05-06 00:02 | 40.87678 | -111.12280 | 23635 ft | 439 kts | 96° |
| 2026-05-06 00:02 | 40.87196 | -111.08270 | 23952 ft | 444 kts | 96° |
| 2026-05-06 00:02 | 40.86712 | -111.04219 | 24323 ft | 447 kts | 96° |
| 2026-05-06 00:03 | 40.86222 | -111.00148 | 24721 ft | 450 kts | 96° |
| 2026-05-06 00:03 | 40.85725 | -110.96066 | 25116 ft | 452 kts | 96° |
| 2026-05-06 00:03 | 40.85226 | -110.91960 | 25508 ft | 454 kts | 95° |
| 2026-05-06 00:03 | 40.84722 | -110.87831 | 25903 ft | 456 kts | 95° |
| 2026-05-06 00:04 | 40.84217 | -110.83696 | 26283 ft | 458 kts | 95° |
| 2026-05-06 00:04 | 40.83709 | -110.79545 | 26674 ft | 460 kts | 95° |
| 2026-05-06 00:04 | 40.83199 | -110.75357 | 26961 ft | 464 kts | 94° |
| 2026-05-06 00:04 | 40.82686 | -110.71148 | 27307 ft | 466 kts | 94° |
| 2026-05-06 00:05 | 40.81635 | -110.62663 | 28015 ft | 470 kts | 94° |
| 2026-05-06 00:05 | 40.81101 | -110.58398 | 28351 ft | 472 kts | 94° |
| 2026-05-06 00:05 | 40.80563 | -110.54108 | 28689 ft | 474 kts | 94° |
| 2026-05-06 00:06 | 40.80025 | -110.49772 | 29011 ft | 476 kts | 93° |
| 2026-05-06 00:06 | 40.79491 | -110.45436 | 29393 ft | 477 kts | 93° |
| 2026-05-06 00:06 | 40.78956 | -110.41122 | 29808 ft | 477 kts | 93° |
| 2026-05-06 00:06 | 40.78416 | -110.36815 | 30217 ft | 476 kts | 93° |
| 2026-05-06 00:07 | 40.77868 | -110.32511 | 30589 ft | 474 kts | 94° |
| 2026-05-06 00:07 | 40.77317 | -110.28234 | 31050 ft | 471 kts | 94° |
| 2026-05-06 00:07 | 40.76770 | -110.23995 | 31520 ft | 469 kts | 94° |
| 2026-05-06 00:07 | 40.76225 | -110.19749 | 31935 ft | 467 kts | 94° |
| 2026-05-06 00:08 | 40.75687 | -110.15536 | 32343 ft | 466 kts | 94° |
| 2026-05-06 00:08 | 40.75148 | -110.11332 | 32717 ft | 465 kts | 94° |
| 2026-05-06 00:08 | 40.74606 | -110.07112 | 33030 ft | 466 kts | 94° |
| 2026-05-06 00:08 | 40.74083 | -110.02895 | 33359 ft | 465 kts | 92° |
| 2026-05-06 00:09 | 40.73685 | -109.98680 | 33746 ft | 462 kts | 90° |
| 2026-05-06 00:09 | 40.73393 | -109.94474 | 34074 ft | 461 kts | 89° |
| 2026-05-06 00:09 | 40.73157 | -109.90271 | 34381 ft | 460 kts | 89° |
| 2026-05-06 00:09 | 40.72935 | -109.86058 | 34661 ft | 460 kts | 89° |
| 2026-05-06 00:10 | 40.72695 | -109.81842 | 34927 ft | 461 kts | 90° |
| 2026-05-06 00:10 | 40.72426 | -109.77620 | 35194 ft | 463 kts | 91° |
| 2026-05-06 00:10 | 40.72130 | -109.73392 | 35382 ft | 465 kts | 91° |
| 2026-05-06 00:10 | 40.71814 | -109.69138 | 35598 ft | 467 kts | 91° |
| 2026-05-06 00:11 | 40.71594 | -109.66261 | 35774 ft | 467 kts | 92° |
| 2026-05-06 00:11 | 40.71268 | -109.61998 | 36015 ft | 468 kts | 92° |
| 2026-05-06 00:11 | 40.70945 | -109.57734 | 36250 ft | 468 kts | 91° |
| 2026-05-06 00:11 | 40.70629 | -109.53468 | 36502 ft | 467 kts | 92° |
| 2026-05-06 00:12 | 40.70316 | -109.49199 | 36738 ft | 468 kts | 92° |
| 2026-05-06 00:12 | 40.70003 | -109.44928 | 36862 ft | 470 kts | 92° |
| 2026-05-06 00:12 | 40.69685 | -109.40616 | 36846 ft | 474 kts | 92° |
| 2026-05-06 00:13 | 40.69028 | -109.31940 | 36847 ft | 477 kts | 92° |
| 2026-05-06 00:13 | 40.68363 | -109.23253 | 36842 ft | 477 kts | 92° |
| 2026-05-06 00:14 | 40.67700 | -109.14574 | 36835 ft | 477 kts | 92° |
| 2026-05-06 00:14 | 40.67030 | -109.05863 | 36845 ft | 480 kts | 92° |
| 2026-05-06 00:15 | 40.66343 | -108.97105 | 36845 ft | 481 kts | 92° |
| 2026-05-06 00:15 | 40.65649 | -108.88335 | 36845 ft | 482 kts | 92° |
| 2026-05-06 00:16 | 40.64949 | -108.79563 | 36848 ft | 482 kts | 93° |
| 2026-05-06 00:16 | 40.64239 | -108.70775 | 36830 ft | 483 kts | 93° |
| 2026-05-06 00:17 | 40.63519 | -108.61918 | 36835 ft | 484 kts | 93° |
| 2026-05-06 00:17 | 40.62806 | -108.53157 | 36848 ft | 484 kts | 93° |
| 2026-05-06 00:18 | 40.62066 | -108.44284 | 36850 ft | 485 kts | 94° |
| 2026-05-06 00:18 | 40.61321 | -108.35455 | 36854 ft | 486 kts | 94° |
| 2026-05-06 00:19 | 40.60576 | -108.26606 | 36848 ft | 487 kts | 94° |
| 2026-05-06 00:19 | 40.59819 | -108.17725 | 36849 ft | 488 kts | 94° |
| 2026-05-06 00:20 | 40.59053 | -108.08839 | 36866 ft | 489 kts | 94° |
| 2026-05-06 00:20 | 40.58278 | -107.99962 | 36879 ft | 489 kts | 94° |
| 2026-05-06 00:21 | 40.57497 | -107.91058 | 36859 ft | 489 kts | 95° |
| 2026-05-06 00:21 | 40.56713 | -107.82189 | 36899 ft | 488 kts | 95° |
| 2026-05-06 00:22 | 40.55930 | -107.73324 | 36971 ft | 488 kts | 95° |
| 2026-05-06 00:22 | 40.55129 | -107.64455 | 36964 ft | 488 kts | 95° |
| 2026-05-06 00:23 | 40.54326 | -107.55589 | 36960 ft | 489 kts | 95° |
| 2026-05-06 00:23 | 40.53515 | -107.46667 | 36956 ft | 489 kts | 95° |
| 2026-05-06 00:24 | 40.52694 | -107.37793 | 36969 ft | 490 kts | 96° |
| 2026-05-06 00:24 | 40.52013 | -107.28875 | 36957 ft | 489 kts | 88° |
| 2026-05-06 00:25 | 40.52071 | -107.19934 | 36948 ft | 490 kts | 88° |
| 2026-05-06 00:25 | 40.52117 | -107.10960 | 36950 ft | 491 kts | 88° |
| 2026-05-06 00:26 | 40.52142 | -107.01987 | 36948 ft | 492 kts | 89° |
| 2026-05-06 00:26 | 40.52170 | -106.92999 | 36925 ft | 493 kts | 89° |
| 2026-05-06 00:27 | 40.52196 | -106.83993 | 36918 ft | 493 kts | 89° |
| 2026-05-06 00:27 | 40.52208 | -106.74976 | 36930 ft | 493 kts | 89° |
| 2026-05-06 00:28 | 40.52217 | -106.65965 | 36934 ft | 494 kts | 89° |
| 2026-05-06 00:28 | 40.52216 | -106.56938 | 36920 ft | 495 kts | 90° |
| 2026-05-06 00:29 | 40.52211 | -106.47881 | 36923 ft | 496 kts | 90° |
| 2026-05-06 00:29 | 40.52194 | -106.38753 | 36923 ft | 496 kts | 90° |
| 2026-05-06 00:30 | 40.52168 | -106.29677 | 36907 ft | 497 kts | 90° |
| 2026-05-06 00:30 | 40.52141 | -106.20579 | 36899 ft | 499 kts | 90° |
| 2026-05-06 00:31 | 40.52109 | -106.11450 | 36898 ft | 500 kts | 90° |
| 2026-05-06 00:31 | 40.52065 | -106.02296 | 36921 ft | 501 kts | 90° |
| 2026-05-06 00:32 | 40.52016 | -105.93129 | 36918 ft | 502 kts | 91° |
| 2026-05-06 00:32 | 40.51958 | -105.83926 | 36936 ft | 504 kts | 91° |
| 2026-05-06 00:33 | 40.51888 | -105.74714 | 36958 ft | 505 kts | 91° |
| 2026-05-06 00:33 | 40.51819 | -105.65483 | 36965 ft | 506 kts | 91° |
| 2026-05-06 00:34 | 40.51746 | -105.56229 | 36996 ft | 506 kts | 91° |
| 2026-05-06 00:34 | 40.51657 | -105.46986 | 37021 ft | 507 kts | 91° |
| 2026-05-06 00:35 | 40.51557 | -105.37715 | 37011 ft | 507 kts | 92° |
| 2026-05-06 00:35 | 40.51508 | -105.33071 | 37232 ft | 507 kts | 92° |
| 2026-05-06 00:35 | 40.51457 | -105.28432 | 37486 ft | 507 kts | 92° |
| 2026-05-06 00:35 | 40.51404 | -105.23793 | 37639 ft | 509 kts | 92° |
| 2026-05-06 00:36 | 40.51347 | -105.19138 | 37807 ft | 510 kts | 92° |
| 2026-05-06 00:36 | 40.51287 | -105.14481 | 37996 ft | 511 kts | 92° |
| 2026-05-06 00:36 | 40.51225 | -105.09811 | 38189 ft | 511 kts | 92° |
| 2026-05-06 00:36 | 40.51161 | -105.05130 | 38377 ft | 512 kts | 92° |
| 2026-05-06 00:37 | 40.51094 | -105.00447 | 38558 ft | 512 kts | 92° |
| 2026-05-06 00:37 | 40.51027 | -104.95700 | 38734 ft | 513 kts | 92° |
| 2026-05-06 00:37 | 40.50962 | -104.91019 | 38893 ft | 513 kts | 93° |
| 2026-05-06 00:37 | 40.50894 | -104.86335 | 39018 ft | 513 kts | 93° |
| 2026-05-06 00:38 | 40.50821 | -104.81641 | 39058 ft | 515 kts | 93° |
| 2026-05-06 00:38 | 40.50673 | -104.72246 | 39055 ft | 515 kts | 93° |
| 2026-05-06 00:39 | 40.50519 | -104.62822 | 39056 ft | 515 kts | 93° |
| 2026-05-06 00:39 | 40.50326 | -104.53418 | 39055 ft | 515 kts | 95° |
| 2026-05-06 00:40 | 40.49857 | -104.44039 | 39060 ft | 514 kts | 97° |
| 2026-05-06 00:40 | 40.49196 | -104.34698 | 39064 ft | 514 kts | 98° |
| 2026-05-06 00:41 | 40.48558 | -104.25332 | 39069 ft | 515 kts | 97° |
| 2026-05-06 00:41 | 40.47989 | -104.15937 | 39060 ft | 516 kts | 97° |
| 2026-05-06 00:42 | 40.47437 | -104.06525 | 39002 ft | 517 kts | 97° |
| 2026-05-06 00:42 | 40.46847 | -103.97101 | 39027 ft | 518 kts | 98° |
| 2026-05-06 00:43 | 40.46231 | -103.87679 | 39039 ft | 518 kts | 98° |
| 2026-05-06 00:43 | 40.45714 | -103.79768 | 39044 ft | 519 kts | 97° |
| 2026-05-06 00:44 | 40.45099 | -103.70314 | 39037 ft | 521 kts | 97° |
| 2026-05-06 00:44 | 40.44473 | -103.60828 | 39034 ft | 522 kts | 98° |
| 2026-05-06 00:45 | 40.43834 | -103.51343 | 39040 ft | 522 kts | 98° |
| 2026-05-06 00:45 | 40.43190 | -103.41838 | 39046 ft | 523 kts | 98° |
| 2026-05-06 00:46 | 40.42535 | -103.32326 | 39050 ft | 524 kts | 98° |
| 2026-05-06 00:46 | 40.41875 | -103.22786 | 39056 ft | 525 kts | 98° |
| 2026-05-06 00:47 | 40.41202 | -103.13227 | 39057 ft | 526 kts | 98° |
| 2026-05-06 00:47 | 40.40522 | -103.03677 | 39060 ft | 526 kts | 98° |
| 2026-05-06 00:48 | 40.39837 | -102.94121 | 39034 ft | 527 kts | 99° |
| 2026-05-06 00:48 | 40.39137 | -102.84559 | 39046 ft | 527 kts | 99° |
| 2026-05-06 00:49 | 40.38420 | -102.74924 | 39048 ft | 527 kts | 99° |
| 2026-05-06 00:49 | 40.37704 | -102.65355 | 39042 ft | 528 kts | 99° |
| 2026-05-06 00:50 | 40.36983 | -102.55837 | 39042 ft | 528 kts | 99° |
| 2026-05-06 00:50 | 40.36246 | -102.46192 | 39044 ft | 529 kts | 99° |
| 2026-05-06 00:51 | 40.35510 | -102.36601 | 39047 ft | 529 kts | 99° |
| 2026-05-06 00:51 | 40.34766 | -102.27004 | 39046 ft | 530 kts | 99° |
| 2026-05-06 00:52 | 40.34007 | -102.17399 | 39048 ft | 530 kts | 100° |
| 2026-05-06 00:52 | 40.33235 | -102.07779 | 39047 ft | 530 kts | 100° |
| 2026-05-06 00:53 | 40.32465 | -101.98172 | 39051 ft | 531 kts | 100° |
| 2026-05-06 00:53 | 40.31686 | -101.88542 | 39050 ft | 531 kts | 100° |
| 2026-05-06 00:54 | 40.30891 | -101.78916 | 39048 ft | 532 kts | 100° |
| 2026-05-06 00:54 | 40.30085 | -101.69281 | 39033 ft | 532 kts | 101° |
| 2026-05-06 00:55 | 40.29273 | -101.59621 | 39024 ft | 534 kts | 101° |
| 2026-05-06 00:55 | 40.28463 | -101.49955 | 39030 ft | 535 kts | 101° |
| 2026-05-06 00:56 | 40.27639 | -101.40251 | 39037 ft | 536 kts | 101° |
| 2026-05-06 00:56 | 40.26796 | -101.30554 | 39058 ft | 537 kts | 101° |
| 2026-05-06 00:57 | 40.25940 | -101.20840 | 39048 ft | 538 kts | 101° |
| 2026-05-06 00:57 | 40.25087 | -101.11115 | 39045 ft | 538 kts | 101° |
| 2026-05-06 00:58 | 40.24220 | -101.01375 | 39051 ft | 539 kts | 101° |
| 2026-05-06 00:58 | 40.23337 | -100.91573 | 39060 ft | 539 kts | 102° |
| 2026-05-06 00:59 | 40.22452 | -100.81827 | 39054 ft | 539 kts | 102° |
| 2026-05-06 00:59 | 40.21563 | -100.72078 | 39056 ft | 539 kts | 102° |
| 2026-05-06 01:00 | 40.20682 | -100.62328 | 39054 ft | 541 kts | 98° |
| 2026-05-06 01:00 | 40.20994 | -100.52448 | 39056 ft | 548 kts | 86° |
| 2026-05-06 01:01 | 40.21868 | -100.42537 | 39049 ft | 549 kts | 86° |
| 2026-05-06 01:01 | 40.22727 | -100.32620 | 39060 ft | 549 kts | 86° |
| 2026-05-06 01:02 | 40.23570 | -100.22671 | 39037 ft | 550 kts | 86° |
| 2026-05-06 01:02 | 40.24402 | -100.12729 | 39036 ft | 550 kts | 86° |
| 2026-05-06 01:03 | 40.25233 | -100.02760 | 39042 ft | 551 kts | 86° |
| 2026-05-06 01:03 | 40.26063 | -99.92799 | 39053 ft | 551 kts | 86° |
| 2026-05-06 01:04 | 40.26887 | -99.82825 | 39043 ft | 551 kts | 86° |
| 2026-05-06 01:04 | 40.27693 | -99.72839 | 39037 ft | 552 kts | 86° |
| 2026-05-06 01:05 | 40.28498 | -99.62834 | 39047 ft | 553 kts | 86° |
| 2026-05-06 01:05 | 40.29300 | -99.52822 | 39048 ft | 553 kts | 87° |
| 2026-05-06 01:06 | 40.30088 | -99.42802 | 39037 ft | 554 kts | 87° |
| 2026-05-06 01:06 | 40.30865 | -99.32758 | 39040 ft | 554 kts | 87° |
| 2026-05-06 01:07 | 40.31642 | -99.22628 | 39042 ft | 555 kts | 87° |
| 2026-05-06 01:07 | 40.32398 | -99.12615 | 39046 ft | 556 kts | 87° |
| 2026-05-06 01:08 | 40.33161 | -99.02464 | 39036 ft | 556 kts | 87° |
| 2026-05-06 01:08 | 40.33910 | -98.92373 | 39035 ft | 557 kts | 88° |
| 2026-05-06 01:09 | 40.34645 | -98.82273 | 39034 ft | 557 kts | 88° |
| 2026-05-06 01:09 | 40.35373 | -98.72160 | 39035 ft | 557 kts | 88° |
| 2026-05-06 01:10 | 40.36091 | -98.62038 | 39020 ft | 558 kts | 88° |
| 2026-05-06 01:10 | 40.36811 | -98.51895 | 39021 ft | 559 kts | 88° |
| 2026-05-06 01:11 | 40.37526 | -98.41747 | 39023 ft | 559 kts | 88° |
| 2026-05-06 01:11 | 40.38222 | -98.31599 | 39013 ft | 559 kts | 88° |
| 2026-05-06 01:12 | 40.38902 | -98.21425 | 39012 ft | 560 kts | 88° |
| 2026-05-06 01:12 | 40.39576 | -98.11246 | 39006 ft | 560 kts | 88° |
| 2026-05-06 01:13 | 40.40260 | -98.01055 | 39010 ft | 561 kts | 88° |
| 2026-05-06 01:13 | 40.40933 | -97.90863 | 39013 ft | 561 kts | 88° |
| 2026-05-06 01:14 | 40.41914 | -97.75497 | 39011 ft | 562 kts | 89° |
| 2026-05-06 01:14 | 40.42560 | -97.65273 | 39013 ft | 562 kts | 89° |
| 2026-05-06 01:15 | 40.43094 | -97.56788 | 38994 ft | 562 kts | 89° |
| 2026-05-06 01:15 | 40.43722 | -97.46559 | 38989 ft | 563 kts | 89° |
| 2026-05-06 01:16 | 40.44339 | -97.36316 | 38992 ft | 563 kts | 89° |
| 2026-05-06 01:16 | 40.44950 | -97.26052 | 38995 ft | 564 kts | 89° |
| 2026-05-06 01:17 | 40.45545 | -97.15795 | 38998 ft | 564 kts | 89° |
| 2026-05-06 01:17 | 40.46138 | -97.05520 | 39004 ft | 564 kts | 89° |
| 2026-05-06 01:18 | 40.46722 | -96.95237 | 39011 ft | 564 kts | 89° |
| 2026-05-06 01:18 | 40.47298 | -96.84903 | 39012 ft | 564 kts | 89° |
| 2026-05-06 01:19 | 40.47870 | -96.74605 | 39010 ft | 565 kts | 89° |
| 2026-05-06 01:19 | 40.48426 | -96.64329 | 39006 ft | 565 kts | 89° |
| 2026-05-06 01:20 | 40.48974 | -96.54028 | 39006 ft | 565 kts | 89° |
| 2026-05-06 01:20 | 40.49515 | -96.43724 | 38987 ft | 566 kts | 90° |
| 2026-05-06 01:21 | 40.50042 | -96.33400 | 38986 ft | 566 kts | 90° |
| 2026-05-06 01:21 | 40.50567 | -96.23062 | 38994 ft | 567 kts | 90° |
| 2026-05-06 01:22 | 40.51079 | -96.12719 | 39003 ft | 568 kts | 90° |
| 2026-05-06 01:22 | 40.51591 | -96.02367 | 38998 ft | 568 kts | 90° |
| 2026-05-06 01:23 | 40.52083 | -95.92004 | 39003 ft | 569 kts | 90° |
| 2026-05-06 01:23 | 40.52569 | -95.81614 | 39010 ft | 569 kts | 90° |
| 2026-05-06 01:24 | 40.53043 | -95.71238 | 39013 ft | 569 kts | 90° |
| 2026-05-06 01:24 | 40.53515 | -95.60851 | 38990 ft | 569 kts | 90° |
| 2026-05-06 01:25 | 40.53978 | -95.50447 | 38989 ft | 570 kts | 90° |
| 2026-05-06 01:25 | 40.54425 | -95.40046 | 38986 ft | 570 kts | 90° |
| 2026-05-06 01:26 | 40.54570 | -95.36535 | 38990 ft | 570 kts | 90° |
| 2026-05-06 01:26 | 40.54756 | -95.32978 | 38996 ft | 569 kts | 89° |
| 2026-05-06 01:27 | 40.55251 | -95.22590 | 38988 ft | 570 kts | 91° |
| 2026-05-06 01:27 | 40.55610 | -95.12191 | 38996 ft | 570 kts | 91° |
| 2026-05-06 01:28 | 40.55977 | -95.01777 | 39003 ft | 571 kts | 91° |
| 2026-05-06 01:28 | 40.56400 | -94.91350 | 39002 ft | 571 kts | 90° |
| 2026-05-06 01:29 | 40.56828 | -94.80912 | 38999 ft | 571 kts | 90° |
| 2026-05-06 01:29 | 40.57223 | -94.70480 | 38985 ft | 572 kts | 91° |
| 2026-05-06 01:30 | 40.57589 | -94.60028 | 38987 ft | 572 kts | 91° |
| 2026-05-06 01:30 | 40.57951 | -94.49580 | 38966 ft | 572 kts | 91° |
| 2026-05-06 01:31 | 40.58310 | -94.39104 | 38961 ft | 573 kts | 91° |
| 2026-05-06 01:31 | 40.58668 | -94.28618 | 38963 ft | 574 kts | 91° |
| 2026-05-06 01:32 | 40.59017 | -94.18128 | 38968 ft | 574 kts | 91° |
| 2026-05-06 01:32 | 40.59350 | -94.07637 | 38968 ft | 574 kts | 91° |
| 2026-05-06 01:33 | 40.59808 | -93.97133 | 38967 ft | 577 kts | 84° |
| 2026-05-06 01:33 | 40.61567 | -93.86751 | 38968 ft | 578 kts | 76° |
| 2026-05-06 01:34 | 40.63515 | -93.76482 | 38947 ft | 579 kts | 76° |
| 2026-05-06 01:34 | 40.65437 | -93.66191 | 38950 ft | 579 kts | 76° |
| 2026-05-06 01:35 | 40.67342 | -93.55883 | 38957 ft | 579 kts | 76° |
| 2026-05-06 01:35 | 40.69242 | -93.45567 | 38960 ft | 580 kts | 76° |
| 2026-05-06 01:36 | 40.71145 | -93.35234 | 38963 ft | 580 kts | 76° |
| 2026-05-06 01:36 | 40.73041 | -93.24897 | 38965 ft | 580 kts | 77° |
| 2026-05-06 01:37 | 40.74924 | -93.14569 | 38968 ft | 580 kts | 77° |
| 2026-05-06 01:37 | 40.76795 | -93.04225 | 38960 ft | 580 kts | 76° |
| 2026-05-06 01:38 | 40.78656 | -92.93877 | 38959 ft | 580 kts | 77° |
| 2026-05-06 01:38 | 40.80513 | -92.83520 | 38959 ft | 580 kts | 77° |
| 2026-05-06 01:39 | 40.82362 | -92.73159 | 38956 ft | 580 kts | 77° |
| 2026-05-06 01:39 | 40.84198 | -92.62775 | 38931 ft | 580 kts | 76° |
| 2026-05-06 01:40 | 40.86019 | -92.52390 | 38937 ft | 581 kts | 77° |
| 2026-05-06 01:40 | 40.87840 | -92.41993 | 38939 ft | 581 kts | 77° |
| 2026-05-06 01:41 | 40.89655 | -92.31591 | 38974 ft | 581 kts | 77° |
| 2026-05-06 01:41 | 40.91454 | -92.21190 | 38957 ft | 580 kts | 76° |
| 2026-05-06 01:42 | 40.93118 | -92.11491 | 38951 ft | 580 kts | 77° |
| 2026-05-06 01:42 | 40.94898 | -92.01085 | 38950 ft | 580 kts | 77° |
| 2026-05-06 01:43 | 40.96668 | -91.90673 | 38946 ft | 580 kts | 77° |
| 2026-05-06 01:43 | 40.98431 | -91.80251 | 38954 ft | 580 kts | 76° |
| 2026-05-06 01:44 | 41.00191 | -91.69832 | 38957 ft | 580 kts | 76° |
| 2026-05-06 01:44 | 41.01937 | -91.59417 | 38956 ft | 580 kts | 77° |
| 2026-05-06 01:45 | 41.03665 | -91.48992 | 38949 ft | 580 kts | 76° |
| 2026-05-06 01:45 | 41.05386 | -91.38551 | 38953 ft | 580 kts | 76° |
| 2026-05-06 01:46 | 41.07101 | -91.28118 | 38950 ft | 580 kts | 76° |
| 2026-05-06 01:46 | 41.08805 | -91.17665 | 38933 ft | 580 kts | 76° |
| 2026-05-06 01:47 | 41.10506 | -91.07225 | 38932 ft | 580 kts | 76° |
| 2026-05-06 01:47 | 41.12200 | -90.96770 | 38933 ft | 579 kts | 76° |
| 2026-05-06 01:48 | 41.13884 | -90.86262 | 38927 ft | 578 kts | 76° |
| 2026-05-06 01:48 | 41.15542 | -90.75826 | 38910 ft | 577 kts | 76° |
| 2026-05-06 01:49 | 41.17191 | -90.65401 | 38923 ft | 577 kts | 76° |
| 2026-05-06 01:49 | 41.18831 | -90.54981 | 38914 ft | 577 kts | 76° |
| 2026-05-06 01:50 | 41.20456 | -90.44547 | 38915 ft | 577 kts | 76° |
| 2026-05-06 01:50 | 41.22085 | -90.34108 | 38918 ft | 577 kts | 76° |
| 2026-05-06 01:51 | 41.23698 | -90.23681 | 38920 ft | 576 kts | 76° |
| 2026-05-06 01:51 | 41.25292 | -90.13282 | 38923 ft | 576 kts | 76° |
| 2026-05-06 01:52 | 41.26883 | -90.02843 | 38922 ft | 576 kts | 76° |
| 2026-05-06 01:52 | 41.28465 | -89.92411 | 38924 ft | 575 kts | 76° |
| 2026-05-06 01:53 | 41.30032 | -89.81991 | 38929 ft | 574 kts | 76° |
| 2026-05-06 01:53 | 41.31586 | -89.71566 | 38928 ft | 574 kts | 76° |
| 2026-05-06 01:54 | 41.33125 | -89.61158 | 38928 ft | 574 kts | 76° |
| 2026-05-06 01:54 | 41.34675 | -89.50657 | 38949 ft | 574 kts | 76° |
| 2026-05-06 01:55 | 41.36198 | -89.40252 | 38944 ft | 573 kts | 77° |
| 2026-05-06 01:55 | 41.37719 | -89.29835 | 38938 ft | 573 kts | 77° |
| 2026-05-06 01:56 | 41.39234 | -89.19413 | 38935 ft | 573 kts | 77° |
| 2026-05-06 01:56 | 41.40735 | -89.09018 | 38937 ft | 572 kts | 77° |
| 2026-05-06 01:57 | 41.42222 | -88.98609 | 38926 ft | 571 kts | 77° |
| 2026-05-06 01:57 | 41.43686 | -88.88202 | 38922 ft | 571 kts | 77° |
| 2026-05-06 01:58 | 41.45146 | -88.77808 | 38907 ft | 570 kts | 77° |
| 2026-05-06 01:58 | 41.46607 | -88.67429 | 38920 ft | 570 kts | 77° |
| 2026-05-06 01:59 | 41.48057 | -88.57037 | 38919 ft | 569 kts | 77° |
| 2026-05-06 01:59 | 41.49481 | -88.46655 | 38913 ft | 569 kts | 77° |
| 2026-05-06 02:00 | 41.50900 | -88.36275 | 38918 ft | 569 kts | 77° |
| 2026-05-06 02:00 | 41.52318 | -88.25826 | 38922 ft | 568 kts | 77° |
| 2026-05-06 02:01 | 41.53718 | -88.15447 | 38934 ft | 568 kts | 77° |
| 2026-05-06 02:01 | 41.54871 | -88.06823 | 38960 ft | 568 kts | 77° |
| 2026-05-06 02:02 | 41.56254 | -87.96446 | 38943 ft | 567 kts | 77° |
| 2026-05-06 02:02 | 41.57628 | -87.86079 | 38927 ft | 567 kts | 77° |
| 2026-05-06 02:03 | 41.58994 | -87.75710 | 38919 ft | 567 kts | 77° |
| 2026-05-06 02:03 | 41.60343 | -87.65339 | 38921 ft | 566 kts | 77° |
| 2026-05-06 02:04 | 41.61684 | -87.54973 | 38923 ft | 566 kts | 77° |
| 2026-05-06 02:04 | 41.63018 | -87.44597 | 38912 ft | 566 kts | 77° |
| 2026-05-06 02:05 | 41.64353 | -87.34164 | 38908 ft | 566 kts | 77° |
| 2026-05-06 02:05 | 41.65667 | -87.23784 | 38910 ft | 566 kts | 77° |
| 2026-05-06 02:06 | 41.66960 | -87.13407 | 38922 ft | 565 kts | 77° |
| 2026-05-06 02:06 | 41.68251 | -87.03046 | 38928 ft | 565 kts | 77° |
| 2026-05-06 02:07 | 41.69543 | -86.92668 | 38923 ft | 565 kts | 77° |
| 2026-05-06 02:07 | 41.70817 | -86.82297 | 38928 ft | 564 kts | 77° |
| 2026-05-06 02:08 | 41.72077 | -86.71932 | 38931 ft | 564 kts | 77° |
| 2026-05-06 02:08 | 41.73327 | -86.61580 | 38943 ft | 563 kts | 77° |
| 2026-05-06 02:09 | 41.74583 | -86.51236 | 38929 ft | 563 kts | 77° |
| 2026-05-06 02:09 | 41.75815 | -86.40891 | 38926 ft | 562 kts | 78° |
| 2026-05-06 02:10 | 41.77026 | -86.30554 | 38924 ft | 562 kts | 78° |
| 2026-05-06 02:10 | 41.78181 | -86.20199 | 38909 ft | 562 kts | 78° |
| 2026-05-06 02:11 | 41.79290 | -86.09763 | 38907 ft | 562 kts | 78° |
| 2026-05-06 02:11 | 41.80391 | -85.99395 | 38910 ft | 561 kts | 78° |
| 2026-05-06 02:12 | 41.81501 | -85.89046 | 38913 ft | 561 kts | 78° |
| 2026-05-06 02:12 | 41.82608 | -85.78717 | 38912 ft | 561 kts | 78° |
| 2026-05-06 02:13 | 41.83649 | -85.68838 | 38911 ft | 560 kts | 79° |
| 2026-05-06 02:13 | 41.84721 | -85.58512 | 38912 ft | 560 kts | 79° |
| 2026-05-06 02:14 | 41.85797 | -85.48093 | 38910 ft | 560 kts | 79° |
| 2026-05-06 02:14 | 41.86864 | -85.37737 | 38898 ft | 560 kts | 79° |
| 2026-05-06 02:15 | 41.87919 | -85.27369 | 38900 ft | 560 kts | 79° |
| 2026-05-06 02:15 | 41.88922 | -85.17019 | 38926 ft | 560 kts | 80° |
| 2026-05-06 02:16 | 41.89686 | -85.06625 | 38883 ft | 560 kts | 82° |
| 2026-05-06 02:16 | 41.90330 | -84.96200 | 38879 ft | 560 kts | 82° |
| 2026-05-06 02:17 | 41.90999 | -84.85786 | 38883 ft | 560 kts | 82° |
| 2026-05-06 02:17 | 41.91717 | -84.75381 | 38891 ft | 560 kts | 82° |
| 2026-05-06 02:18 | 41.92429 | -84.64973 | 38882 ft | 560 kts | 82° |
| 2026-05-06 02:18 | 41.93117 | -84.54560 | 38900 ft | 560 kts | 82° |
| 2026-05-06 02:19 | 41.93800 | -84.44071 | 38897 ft | 560 kts | 82° |
| 2026-05-06 02:19 | 41.94468 | -84.33660 | 38910 ft | 560 kts | 82° |
| 2026-05-06 02:20 | 41.95470 | -84.18027 | 38909 ft | 559 kts | 81° |
| 2026-05-06 02:21 | 41.96170 | -84.07645 | 38912 ft | 559 kts | 81° |
| 2026-05-06 02:21 | 41.96857 | -83.97231 | 38911 ft | 558 kts | 82° |
| 2026-05-06 02:21 | 41.97189 | -83.92047 | 38692 ft | 560 kts | 82° |
| 2026-05-06 02:22 | 41.97524 | -83.86766 | 37534 ft | 571 kts | 82° |
| 2026-05-06 02:22 | 41.97858 | -83.81464 | 36733 ft | 569 kts | 82° |
| 2026-05-06 02:22 | 41.98191 | -83.76142 | 35772 ft | 572 kts | 83° |
| 2026-05-06 02:22 | 41.98519 | -83.70826 | 34985 ft | 570 kts | 83° |
| 2026-05-06 02:23 | 41.98847 | -83.65504 | 33996 ft | 571 kts | 84° |
| 2026-05-06 02:23 | 41.99175 | -83.60193 | 32752 ft | 570 kts | 84° |
| 2026-05-06 02:23 | 41.99499 | -83.54907 | 31449 ft | 567 kts | 85° |
| 2026-05-06 02:23 | 41.99819 | -83.49640 | 30188 ft | 562 kts | 86° |
| 2026-05-06 02:24 | 42.00136 | -83.44370 | 28728 ft | 556 kts | 86° |
| 2026-05-06 02:24 | 42.00444 | -83.39245 | 28001 ft | 537 kts | 86° |
| 2026-05-06 02:24 | 42.00678 | -83.34365 | 27873 ft | 514 kts | 91° |
| 2026-05-06 02:24 | 42.00498 | -83.29643 | 27492 ft | 500 kts | 99° |
| 2026-05-06 02:25 | 42.00150 | -83.25023 | 26925 ft | 495 kts | 99° |
| 2026-05-06 02:25 | 41.99802 | -83.20450 | 26262 ft | 487 kts | 99° |
| 2026-05-06 02:25 | 41.99460 | -83.15972 | 25477 ft | 480 kts | 99° |
| 2026-05-06 02:25 | 41.99120 | -83.11532 | 24748 ft | 471 kts | 99° |
| 2026-05-06 02:26 | 41.98786 | -83.07193 | 24107 ft | 462 kts | 99° |
| 2026-05-06 02:26 | 41.98455 | -83.02943 | 23442 ft | 454 kts | 100° |
| 2026-05-06 02:26 | 41.98121 | -82.98752 | 22810 ft | 447 kts | 100° |
| 2026-05-06 02:26 | 41.97790 | -82.94630 | 22245 ft | 442 kts | 100° |
| 2026-05-06 02:27 | 41.97460 | -82.90523 | 21680 ft | 441 kts | 101° |
| 2026-05-06 02:27 | 41.97131 | -82.86440 | 21210 ft | 437 kts | 101° |
| 2026-05-06 02:27 | 41.96806 | -82.82400 | 20635 ft | 436 kts | 101° |
| 2026-05-06 02:27 | 41.96459 | -82.78398 | 20264 ft | 426 kts | 104° |
| 2026-05-06 02:28 | 41.95804 | -82.74579 | 19660 ft | 416 kts | 110° |
| 2026-05-06 02:28 | 41.95062 | -82.70837 | 19067 ft | 410 kts | 111° |
| 2026-05-06 02:28 | 41.94333 | -82.67170 | 18511 ft | 404 kts | 111° |
| 2026-05-06 02:28 | 41.93613 | -82.63554 | 17953 ft | 397 kts | 111° |
| 2026-05-06 02:29 | 41.92905 | -82.59996 | 17453 ft | 392 kts | 111° |
| 2026-05-06 02:29 | 41.92204 | -82.56477 | 16949 ft | 389 kts | 111° |
| 2026-05-06 02:29 | 41.91508 | -82.52970 | 16452 ft | 387 kts | 111° |
| 2026-05-06 02:29 | 41.90822 | -82.49495 | 15954 ft | 384 kts | 111° |
| 2026-05-06 02:30 | 41.90132 | -82.45997 | 15460 ft | 382 kts | 111° |
| 2026-05-06 02:30 | 41.89453 | -82.42567 | 14963 ft | 379 kts | 111° |
| 2026-05-06 02:30 | 41.88775 | -82.39150 | 14458 ft | 378 kts | 111° |
| 2026-05-06 02:30 | 41.88100 | -82.35745 | 13949 ft | 376 kts | 111° |
| 2026-05-06 02:31 | 41.87437 | -82.32384 | 13508 ft | 371 kts | 111° |
| 2026-05-06 02:31 | 41.86773 | -82.29046 | 12889 ft | 367 kts | 112° |
| 2026-05-06 02:31 | 41.85786 | -82.25986 | 12421 ft | 351 kts | 128° |
| 2026-05-06 02:31 | 41.84302 | -82.23485 | 11961 ft | 337 kts | 143° |
| 2026-05-06 02:32 | 41.82468 | -82.21637 | 11525 ft | 325 kts | 157° |
| 2026-05-06 02:32 | 41.80424 | -82.20480 | 11096 ft | 315 kts | 171° |
| 2026-05-06 02:32 | 41.78295 | -82.19949 | 10685 ft | 309 kts | 178° |
| 2026-05-06 02:32 | 41.76177 | -82.19536 | 10359 ft | 303 kts | 178° |
| 2026-05-06 02:33 | 41.74160 | -82.19128 | 10202 ft | 284 kts | 177° |
| 2026-05-06 02:33 | 41.72880 | -82.18866 | 9974 ft | 277 kts | 178° |
| 2026-05-06 02:33 | 41.68493 | -82.17998 | 9674 ft | 271 kts | 178° |
| 2026-05-06 02:34 | 41.66624 | -82.17631 | 9432 ft | 271 kts | 178° |
| 2026-05-06 02:34 | 41.64761 | -82.17268 | 9110 ft | 270 kts | 177° |
| 2026-05-06 02:34 | 41.62903 | -82.16908 | 8775 ft | 269 kts | 177° |
| 2026-05-06 02:34 | 41.61058 | -82.16549 | 8443 ft | 268 kts | 177° |
| 2026-05-06 02:35 | 41.59214 | -82.16191 | 8106 ft | 267 kts | 177° |
| 2026-05-06 02:35 | 41.57380 | -82.15843 | 7777 ft | 266 kts | 178° |
| 2026-05-06 02:35 | 41.55545 | -82.15542 | 7450 ft | 265 kts | 178° |
| 2026-05-06 02:35 | 41.53715 | -82.15265 | 7127 ft | 263 kts | 179° |
| 2026-05-06 02:36 | 41.51899 | -82.14993 | 6880 ft | 262 kts | 178° |
| 2026-05-06 02:36 | 41.50081 | -82.14724 | 6702 ft | 262 kts | 179° |
| 2026-05-06 02:36 | 41.48290 | -82.14457 | 6534 ft | 256 kts | 178° |
| 2026-05-06 02:36 | 41.46532 | -82.14196 | 6359 ft | 253 kts | 178° |
| 2026-05-06 02:37 | 41.44789 | -82.13937 | 6170 ft | 252 kts | 178° |
| 2026-05-06 02:37 | 41.43036 | -82.13677 | 5976 ft | 254 kts | 178° |
| 2026-05-06 02:37 | 41.41288 | -82.13434 | 5691 ft | 248 kts | 178° |
| 2026-05-06 02:37 | 41.39596 | -82.13205 | 5426 ft | 233 kts | 178° |
| 2026-05-06 02:38 | 41.38043 | -82.12954 | 5209 ft | 221 kts | 172° |
| 2026-05-06 02:38 | 41.36619 | -82.12185 | 4977 ft | 222 kts | 151° |
| 2026-05-06 02:38 | 41.35475 | -82.10829 | 4776 ft | 225 kts | 136° |
| 2026-05-06 02:38 | 41.34404 | -82.09272 | 4559 ft | 225 kts | 136° |
| 2026-05-06 02:39 | 41.33344 | -82.07739 | 4351 ft | 226 kts | 135° |
| 2026-05-06 02:39 | 41.32325 | -82.06134 | 4137 ft | 228 kts | 122° |
| 2026-05-06 02:39 | 41.31901 | -82.04113 | 3895 ft | 231 kts | 90° |
| 2026-05-06 02:39 | 41.32185 | -82.02004 | 3510 ft | 232 kts | 75° |
| 2026-05-06 02:40 | 41.32555 | -81.99934 | 3147 ft | 227 kts | 73° |
| 2026-05-06 02:40 | 41.33166 | -81.98104 | 2853 ft | 208 kts | 48° |
| 2026-05-06 02:40 | 41.34071 | -81.96675 | 2629 ft | 195 kts | 46° |
| 2026-05-06 02:40 | 41.34918 | -81.95340 | 2378 ft | 184 kts | 46° |
| 2026-05-06 02:41 | 41.35448 | -81.94505 | 2203 ft | 174 kts | 47° |
| 2026-05-06 02:41 | 41.36417 | -81.92977 | 1912 ft | 147 kts | 47° |
| 2026-05-06 02:41 | 41.36847 | -81.92299 | 1774 ft | 137 kts | 47° |
| 2026-05-06 02:41 | 41.37430 | -81.91381 | 1596 ft | 129 kts | 47° |
| 2026-05-06 02:42 | 41.38006 | -81.90474 | 1423 ft | 126 kts | 47° |
| 2026-05-06 02:42 | 41.38574 | -81.89579 | 1250 ft | 126 kts | 47° |
| 2026-05-06 02:42 | 41.39133 | -81.88699 | 1054 ft | 126 kts | 47° |
| 2026-05-06 02:42 | 41.39706 | -81.87790 | 901 ft | 126 kts | 48° |
| 2026-05-06 02:43 | 41.40255 | -81.86924 | 777 ft | 113 kts | 50° |
| 2026-05-06 02:43 | 41.40604 | -81.86374 | 773 ft | 57 kts | 49° |
| 2026-05-06 02:43 | 41.40824 | -81.86027 | 773 ft | 43 kts | 50° |
| 2026-05-06 02:43 | 41.40999 | -81.85750 | 774 ft | 35 kts | 51° |
| 2026-05-06 02:44 | 41.41084 | -81.85495 | 772 ft | 20 kts | 85° |
| 2026-05-06 02:44 | 41.41092 | -81.85395 | 772 ft | 8 kts | 76° |
| 2026-05-06 02:44 | 41.41101 | -81.85363 | 772 ft | 1 kts | 64° |
| 2026-05-06 02:44 | 41.41104 | -81.85357 | 772 ft | 1 kts | 57° |
| 2026-05-06 02:45 | 41.41115 | -81.85340 | 772 ft | 6 kts | 50° |
| 2026-05-06 02:45 | 41.41175 | -81.85247 | 772 ft | 17 kts | 50° |
| 2026-05-06 02:45 | 41.41246 | -81.85134 | 772 ft | 14 kts | 50° |
| 2026-05-06 02:45 | 41.41306 | -81.85040 | 772 ft | 12 kts | 49° |
| 2026-05-06 02:46 | 41.41307 | -81.84951 | 772 ft | 10 kts | 132° |
| 2026-05-06 02:46 | 41.41238 | -81.84866 | 772 ft | 21 kts | 139° |
| 2026-05-06 02:46 | 41.41129 | -81.84740 | 773 ft | 19 kts | 140° |
| 2026-05-06 02:46 | 41.41122 | -81.84614 | 772 ft | 14 kts | 43° |
| 2026-05-06 02:47 | 41.41164 | -81.84509 | 772 ft | 13 kts | 103° |
| 2026-05-06 02:47 | 41.41101 | -81.84420 | 772 ft | 10 kts | 123° |
| 2026-05-06 02:47 | 41.41123 | -81.84380 | 772 ft | 4 kts | 12° |
| 2026-05-06 02:47 | 41.41168 | -81.84379 | 772 ft | 11 kts | 1° |
| 2026-05-06 02:48 | 41.41248 | -81.84314 | 772 ft | 16 kts | 49° |
| 2026-05-06 02:48 | 41.41289 | -81.84176 | 772 ft | 16 kts | 86° |
| 2026-05-06 02:48 | 41.41279 | -81.84034 | 771 ft | 14 kts | 113° |
| 2026-05-06 02:48 | 41.41225 | -81.83987 | 771 ft | 2 kts | 177° |
| 2026-05-06 02:49 | 41.41221 | -81.83988 | 771 ft | 3 kts | 181° |